sensor_id;sensor_type;location;lat;lon;timestamp;pressure;altitude;pressure_sealevel;temperature;humidity
61906;BME280;47863;55.766;37.672;2022-07-23T00:01:20;99858.88;;;18.25;68.81
61906;BME280;47863;55.766;37.672;2022-07-23T00:03:46;99850.34;;;18.21;68.91
61906;BME280;47863;55.766;37.672;2022-07-23T00:06:11;99844.50;;;18.11;69.02
61906;BME280;47863;55.766;37.672;2022-07-23T00:08:37;99861.81;;;18.17;69.61
61906;BME280;47863;55.766;37.672;2022-07-23T00:11:02;99858.69;;;18.13;69.22
61906;BME280;47863;55.766;37.672;2022-07-23T00:13:28;99843.66;;;18.04;69.45
61906;BME280;47863;55.766;37.672;2022-07-23T00:15:54;99857.44;;;18.09;69.52
61906;BME280;47863;55.766;37.672;2022-07-23T00:18:20;99849.50;;;18.01;69.83
61906;BME280;47863;55.766;37.672;2022-07-23T00:20:46;99851.16;;;18.02;70.16
61906;BME280;47863;55.766;37.672;2022-07-23T00:23:11;99854.06;;;18.00;70.16
61906;BME280;47863;55.766;37.672;2022-07-23T00:25:37;99840.31;;;17.89;70.34
61906;BME280;47863;55.766;37.672;2022-07-23T00:28:03;99857.00;;;17.92;70.91
61906;BME280;47863;55.766;37.672;2022-07-23T00:30:30;99857.00;;;17.92;70.67
61906;BME280;47863;55.766;37.672;2022-07-23T00:32:58;99856.56;;;17.89;70.51
61906;BME280;47863;55.766;37.672;2022-07-23T00:35:25;99853.22;;;17.87;71.07
61906;BME280;47863;55.766;37.672;2022-07-23T00:37:51;99859.91;;;17.84;71.12
61906;BME280;47863;55.766;37.672;2022-07-23T00:40:17;99855.09;;;17.79;71.17
61906;BME280;47863;55.766;37.672;2022-07-23T00:42:43;99858.41;;;17.75;71.03
61906;BME280;47863;55.766;37.672;2022-07-23T00:45:09;99869.66;;;17.78;71.18
61906;BME280;47863;55.766;37.672;2022-07-23T00:47:35;99869.88;;;17.77;71.34
61906;BME280;47863;55.766;37.672;2022-07-23T00:50:02;99864.88;;;17.74;71.60
61906;BME280;47863;55.766;37.672;2022-07-23T00:52:29;99864.25;;;17.72;71.66
61906;BME280;47863;55.766;37.672;2022-07-23T00:54:55;99862.75;;;17.69;71.88
61906;BME280;47863;55.766;37.672;2022-07-23T00:57:21;99859.22;;;17.69;71.94
61906;BME280;47863;55.766;37.672;2022-07-23T00:59:46;99868.41;;;17.68;72.12
61906;BME280;47863;55.766;37.672;2022-07-23T01:02:12;99863.38;;;17.64;71.95
61906;BME280;47863;55.766;37.672;2022-07-23T01:04:38;99863.59;;;17.63;72.32
61906;BME280;47863;55.766;37.672;2022-07-23T01:07:03;99872.16;;;17.67;72.20
61906;BME280;47863;55.766;37.672;2022-07-23T01:09:30;99876.75;;;17.66;72.42
61906;BME280;47863;55.766;37.672;2022-07-23T01:11:57;99852.94;;;17.55;72.46
61906;BME280;47863;55.766;37.672;2022-07-23T01:14:23;99861.50;;;17.58;72.62
61906;BME280;47863;55.766;37.672;2022-07-23T01:16:49;99864.84;;;17.54;72.74
61906;BME280;47863;55.766;37.672;2022-07-23T01:19:16;99874.84;;;17.60;72.95
61906;BME280;47863;55.766;37.672;2022-07-23T01:21:48;99870.47;;;17.59;72.87
61906;BME280;47863;55.766;37.672;2022-07-23T01:24:14;99875.06;;;17.58;73.33
61906;BME280;47863;55.766;37.672;2022-07-23T01:26:43;99867.31;;;17.55;72.60
61906;BME280;47863;55.766;37.672;2022-07-23T01:29:09;99861.50;;;17.52;72.85
61906;BME280;47863;55.766;37.672;2022-07-23T01:31:35;99867.13;;;17.50;73.03
61906;BME280;47863;55.766;37.672;2022-07-23T01:34:00;99875.44;;;17.55;73.07
61906;BME280;47863;55.766;37.672;2022-07-23T01:36:26;99855.84;;;17.47;73.25
61906;BME280;47863;55.766;37.672;2022-07-23T01:38:51;99867.13;;;17.57;73.65
61906;BME280;47863;55.766;37.672;2022-07-23T01:41:17;99875.06;;;17.58;73.53
61906;BME280;47863;55.766;37.672;2022-07-23T01:43:43;99866.94;;;17.58;73.35
61906;BME280;47863;55.766;37.672;2022-07-23T01:46:09;99865.88;;;17.59;72.86
61906;BME280;47863;55.766;37.672;2022-07-23T01:48:35;99863.81;;;17.61;72.85
61906;BME280;47863;55.766;37.672;2022-07-23T01:51:02;99864.84;;;17.60;73.01
61906;BME280;47863;55.766;37.672;2022-07-23T01:53:28;99851.31;;;17.54;73.09
61906;BME280;47863;55.766;37.672;2022-07-23T01:55:59;99868.19;;;17.62;73.00
61906;BME280;47863;55.766;37.672;2022-07-23T01:58:25;99845.66;;;17.55;73.39
61906;BME280;47863;55.766;37.672;2022-07-23T02:00:52;99862.38;;;17.66;73.00
61906;BME280;47863;55.766;37.672;2022-07-23T02:03:17;99863.59;;;17.63;73.17
61906;BME280;47863;55.766;37.672;2022-07-23T02:05:43;99850.28;;;17.61;73.23
61906;BME280;47863;55.766;37.672;2022-07-23T02:08:08;99861.13;;;17.68;73.56
61906;BME280;47863;55.766;37.672;2022-07-23T02:10:34;99855.25;;;17.71;73.76
61906;BME280;47863;55.766;37.672;2022-07-23T02:13:00;99853.81;;;17.69;73.86
61906;BME280;47863;55.766;37.672;2022-07-23T02:15:25;99857.16;;;17.71;73.57
61906;BME280;47863;55.766;37.672;2022-07-23T02:17:51;99857.38;;;17.76;73.51
61906;BME280;47863;55.766;37.672;2022-07-23T02:20:17;99861.53;;;17.78;73.28
61906;BME280;47863;55.766;37.672;2022-07-23T02:22:42;99859.25;;;17.75;73.71
61906;BME280;47863;55.766;37.672;2022-07-23T02:25:08;99858.81;;;17.78;73.90
61906;BME280;47863;55.766;37.672;2022-07-23T02:27:36;99861.34;;;17.80;73.82
61906;BME280;47863;55.766;37.672;2022-07-23T02:30:02;99845.72;;;17.75;73.39
61906;BME280;47863;55.766;37.672;2022-07-23T02:32:29;99862.41;;;17.86;73.61
61906;BME280;47863;55.766;37.672;2022-07-23T02:34:54;99861.38;;;17.87;73.65
61906;BME280;47863;55.766;37.672;2022-07-23T02:37:20;99867.63;;;17.94;73.49
61906;BME280;47863;55.766;37.672;2022-07-23T02:39:46;99864.72;;;17.95;73.54
61906;BME280;47863;55.766;37.672;2022-07-23T02:42:14;99853.25;;;18.00;73.32
61906;BME280;47863;55.766;37.672;2022-07-23T02:44:40;99849.06;;;18.04;73.20
61906;BME280;47863;55.766;37.672;2022-07-23T02:47:06;99856.16;;;18.12;73.39
61906;BME280;47863;55.766;37.672;2022-07-23T02:49:32;99847.41;;;18.10;73.38
61906;BME280;47863;55.766;37.672;2022-07-23T02:51:57;99860.34;;;18.21;72.83
61906;BME280;47863;55.766;37.672;2022-07-23T02:54:23;99860.34;;;18.21;72.83
61906;BME280;47863;55.766;37.672;2022-07-23T02:56:49;99849.50;;;18.21;72.96
61906;BME280;47863;55.766;37.672;2022-07-23T02:59:17;99868.44;;;18.34;72.60
61906;BME280;47863;55.766;37.672;2022-07-23T03:01:43;99872.19;;;18.40;72.31
61906;BME280;47863;55.766;37.672;2022-07-23T03:04:09;99872.41;;;18.45;72.02
61906;BME280;47863;55.766;37.672;2022-07-23T03:06:34;99872.41;;;18.52;72.02
61906;BME280;47863;55.766;37.672;2022-07-23T03:09:00;99858.22;;;18.50;72.07
61906;BME280;47863;55.766;37.672;2022-07-23T03:11:26;99877.81;;;18.65;71.77
61906;BME280;47863;55.766;37.672;2022-07-23T03:13:51;99870.69;;;18.71;71.28
61906;BME280;47863;55.766;37.672;2022-07-23T03:16:17;99870.69;;;18.77;71.31
61906;BME280;47863;55.766;37.672;2022-07-23T03:18:42;99868.19;;;18.82;70.94
61906;BME280;47863;55.766;37.672;2022-07-23T03:21:08;99870.47;;;18.92;70.67
61906;BME280;47863;55.766;37.672;2022-07-23T03:23:34;99871.50;;;18.98;70.65
61906;BME280;47863;55.766;37.672;2022-07-23T03:25:59;99856.03;;;18.98;70.20
61906;BME280;47863;55.766;37.672;2022-07-23T03:28:25;99870.41;;;19.12;69.84
61906;BME280;47863;55.766;37.672;2022-07-23T03:30:50;99872.03;;;19.20;69.81
61906;BME280;47863;55.766;37.672;2022-07-23T03:33:17;99878.66;;;19.31;69.33
61906;BME280;47863;55.766;37.672;2022-07-23T03:35:44;99878.66;;;19.37;69.41
61906;BME280;47863;55.766;37.672;2022-07-23T03:38:10;99878.81;;;19.42;69.12
61906;BME280;47863;55.766;37.672;2022-07-23T03:40:36;99872.75;;;19.47;69.03
61906;BME280;47863;55.766;37.672;2022-07-23T03:43:01;99872.28;;;19.57;68.18
61906;BME280;47863;55.766;37.672;2022-07-23T03:45:27;99878.47;;;19.71;67.93
61906;BME280;47863;55.766;37.672;2022-07-23T03:47:52;99867.38;;;19.72;67.86
61906;BME280;47863;55.766;37.672;2022-07-23T03:50:18;99877.50;;;19.90;67.33
61906;BME280;47863;55.766;37.672;2022-07-23T03:52:44;99883.91;;;20.03;66.96
61906;BME280;47863;55.766;37.672;2022-07-23T03:55:09;99889.47;;;20.14;66.77
61906;BME280;47863;55.766;37.672;2022-07-23T03:57:36;99874.59;;;20.17;66.87
61906;BME280;47863;55.766;37.672;2022-07-23T04:00:03;99880.28;;;20.34;66.30
61906;BME280;47863;55.766;37.672;2022-07-23T04:02:30;99880.03;;;20.42;64.92
61906;BME280;47863;55.766;37.672;2022-07-23T04:04:56;99885.78;;;20.52;65.05
61906;BME280;47863;55.766;37.672;2022-07-23T04:07:21;99886.56;;;20.59;65.49
61906;BME280;47863;55.766;37.672;2022-07-23T04:09:47;99885.44;;;20.67;64.75
61906;BME280;47863;55.766;37.672;2022-07-23T04:12:13;99885.78;;;20.77;64.98
61906;BME280;47863;55.766;37.672;2022-07-23T04:14:39;99865.47;;;20.73;64.77
61906;BME280;47863;55.766;37.672;2022-07-23T04:17:05;99875.09;;;20.94;63.38
61906;BME280;47863;55.766;37.672;2022-07-23T04:19:30;99887.59;;;21.02;63.64
61906;BME280;47863;55.766;37.672;2022-07-23T04:21:57;99878.72;;;21.07;64.83
61906;BME280;47863;55.766;37.672;2022-07-23T04:24:22;99874.03;;;21.14;62.76
61906;BME280;47863;55.766;37.672;2022-07-23T04:26:48;99866.97;;;21.25;62.30
61906;BME280;47863;55.766;37.672;2022-07-23T04:29:14;99871.66;;;21.36;62.20
61906;BME280;47863;55.766;37.672;2022-07-23T04:31:39;99875.66;;;21.52;62.21
61906;BME280;47863;55.766;37.672;2022-07-23T04:34:05;99881.63;;;21.61;63.51
61906;BME280;47863;55.766;37.672;2022-07-23T04:36:30;99880.47;;;21.68;61.65
61906;BME280;47863;55.766;37.672;2022-07-23T04:38:56;99888.78;;;21.73;61.41
61906;BME280;47863;55.766;37.672;2022-07-23T04:41:21;99878.09;;;21.72;61.17
61906;BME280;47863;55.766;37.672;2022-07-23T04:43:47;99880.63;;;21.85;61.61
61906;BME280;47863;55.766;37.672;2022-07-23T04:46:13;99881.59;;;21.91;61.71
61906;BME280;47863;55.766;37.672;2022-07-23T04:48:39;99886.50;;;22.01;62.20
61906;BME280;47863;55.766;37.672;2022-07-23T04:51:04;99863.25;;;21.98;60.70
61906;BME280;47863;55.766;37.672;2022-07-23T04:53:30;99878.69;;;22.16;60.81
61906;BME280;47863;55.766;37.672;2022-07-23T04:55:56;99882.63;;;22.20;59.98
61906;BME280;47863;55.766;37.672;2022-07-23T04:58:21;99868.41;;;22.30;60.54
61906;BME280;47863;55.766;37.672;2022-07-23T05:00:47;99865.56;;;22.36;60.11
61906;BME280;47863;55.766;37.672;2022-07-23T05:03:13;99853.34;;;22.39;59.50
61906;BME280;47863;55.766;37.672;2022-07-23T05:05:38;99843.97;;;22.47;58.66
61906;BME280;47863;55.766;37.672;2022-07-23T05:08:04;99859.72;;;22.68;62.09
61906;BME280;47863;55.766;37.672;2022-07-23T05:10:30;99845.63;;;22.71;59.38
61906;BME280;47863;55.766;37.672;2022-07-23T05:12:55;99853.03;;;23.00;58.34
61906;BME280;47863;55.766;37.672;2022-07-23T05:15:21;99851.44;;;23.27;56.11
61906;BME280;47863;55.766;37.672;2022-07-23T05:17:47;99855.13;;;23.50;56.54
61906;BME280;47863;55.766;37.672;2022-07-23T05:20:12;99853.50;;;23.78;56.24
61906;BME280;47863;55.766;37.672;2022-07-23T05:22:39;99850.59;;;24.18;55.29
61906;BME280;47863;55.766;37.672;2022-07-23T05:25:05;99862.00;;;24.83;55.66
61906;BME280;47863;55.766;37.672;2022-07-23T05:27:31;99856.78;;;25.25;53.75
61906;BME280;47863;55.766;37.672;2022-07-23T05:29:57;99838.03;;;25.39;50.71
61906;BME280;47863;55.766;37.672;2022-07-23T05:32:23;99853.75;;;25.49;50.73
61906;BME280;47863;55.766;37.672;2022-07-23T05:34:49;99863.97;;;25.53;51.76
61906;BME280;47863;55.766;37.672;2022-07-23T05:37:14;99868.41;;;25.60;51.60
61906;BME280;47863;55.766;37.672;2022-07-23T05:39:40;99866.75;;;25.59;51.04
61906;BME280;47863;55.766;37.672;2022-07-23T05:42:06;99863.19;;;25.58;51.40
61906;BME280;47863;55.766;37.672;2022-07-23T05:44:31;99867.06;;;25.62;50.92
61906;BME280;47863;55.766;37.672;2022-07-23T05:46:57;99863.25;;;25.63;51.38
61906;BME280;47863;55.766;37.672;2022-07-23T05:49:22;99860.28;;;25.70;50.81
61906;BME280;47863;55.766;37.672;2022-07-23T05:51:48;99862.47;;;25.95;50.16
61906;BME280;47863;55.766;37.672;2022-07-23T05:54:13;99855.19;;;26.48;48.20
61906;BME280;47863;55.766;37.672;2022-07-23T05:56:39;99849.66;;;26.91;47.07
61906;BME280;47863;55.766;37.672;2022-07-23T05:59:05;99862.97;;;27.09;47.66
61906;BME280;47863;55.766;37.672;2022-07-23T06:01:31;99853.56;;;27.00;47.35
61906;BME280;47863;55.766;37.672;2022-07-23T06:03:56;99840.25;;;26.77;48.09
61906;BME280;47863;55.766;37.672;2022-07-23T06:06:22;99844.31;;;26.64;47.34
61906;BME280;47863;55.766;37.672;2022-07-23T06:08:48;99856.31;;;26.58;49.41
61906;BME280;47863;55.766;37.672;2022-07-23T06:11:13;99844.47;;;26.47;48.39
61906;BME280;47863;55.766;37.672;2022-07-23T06:13:39;99843.91;;;26.50;48.44
61906;BME280;47863;55.766;37.672;2022-07-23T06:16:04;99847.63;;;26.66;46.99
61906;BME280;47863;55.766;37.672;2022-07-23T06:18:30;99854.63;;;26.94;47.05
61906;BME280;47863;55.766;37.672;2022-07-23T06:20:55;99844.63;;;27.25;45.67
61906;BME280;47863;55.766;37.672;2022-07-23T06:23:21;99857.88;;;27.44;45.44
61906;BME280;47863;55.766;37.672;2022-07-23T06:25:46;99858.16;;;27.53;45.55
61906;BME280;47863;55.766;37.672;2022-07-23T06:28:12;99851.03;;;27.62;45.35
61906;BME280;47863;55.766;37.672;2022-07-23T06:30:38;99848.56;;;27.65;45.16
61906;BME280;47863;55.766;37.672;2022-07-23T06:33:03;99853.22;;;27.70;44.15
61906;BME280;47863;55.766;37.672;2022-07-23T06:35:29;99851.03;;;27.82;44.96
61906;BME280;47863;55.766;37.672;2022-07-23T06:37:54;99848.88;;;28.10;46.63
61906;BME280;47863;55.766;37.672;2022-07-23T06:40:20;99847.47;;;28.43;43.61
61906;BME280;47863;55.766;37.672;2022-07-23T06:42:46;99815.50;;;28.58;42.58
61906;BME280;47863;55.766;37.672;2022-07-23T06:45:11;99840.19;;;28.94;41.48
61906;BME280;47863;55.766;37.672;2022-07-23T06:47:37;99838.84;;;28.91;41.88
61906;BME280;47863;55.766;37.672;2022-07-23T06:50:04;99835.81;;;28.82;41.72
61906;BME280;47863;55.766;37.672;2022-07-23T06:52:30;99840.50;;;28.82;42.15
61906;BME280;47863;55.766;37.672;2022-07-23T06:54:55;99840.19;;;28.88;41.71
61906;BME280;47863;55.766;37.672;2022-07-23T06:57:21;99836.91;;;28.92;42.85
61906;BME280;47863;55.766;37.672;2022-07-23T06:59:46;99835.22;;;28.91;42.87
61906;BME280;47863;55.766;37.672;2022-07-23T07:02:12;99839.63;;;28.97;44.62
61906;BME280;47863;55.766;37.672;2022-07-23T07:04:38;99841.28;;;28.98;41.27
61906;BME280;47863;55.766;37.672;2022-07-23T07:07:03;99841.00;;;28.94;42.39
61906;BME280;47863;55.766;37.672;2022-07-23T07:09:29;99838.56;;;28.87;42.12
61906;BME280;47863;55.766;37.672;2022-07-23T07:11:54;99838.28;;;28.89;43.52
61906;BME280;47863;55.766;37.672;2022-07-23T07:14:20;99829.44;;;28.92;42.04
61906;BME280;47863;55.766;37.672;2022-07-23T07:16:45;99838.19;;;29.10;42.21
61906;BME280;47863;55.766;37.672;2022-07-23T07:19:11;99836.25;;;29.65;40.94
61906;BME280;47863;55.766;37.672;2022-07-23T07:21:37;99831.06;;;30.56;40.26
61906;BME280;47863;55.766;37.672;2022-07-23T07:24:02;99831.41;;;31.79;38.16
61906;BME280;47863;55.766;37.672;2022-07-23T07:26:28;99840.94;;;33.35;34.07
61906;BME280;47863;55.766;37.672;2022-07-23T07:28:54;99831.56;;;34.98;31.09
61906;BME280;47863;55.766;37.672;2022-07-23T07:31:20;99831.59;;;36.29;29.51
61906;BME280;47863;55.766;37.672;2022-07-23T07:33:45;99836.50;;;37.60;26.59
61906;BME280;47863;55.766;37.672;2022-07-23T07:36:11;99836.72;;;38.79;25.02
61906;BME280;47863;55.766;37.672;2022-07-23T07:38:37;99847.13;;;39.69;24.35
61906;BME280;47863;55.766;37.672;2022-07-23T07:41:05;99841.44;;;40.69;22.32
61906;BME280;47863;55.766;37.672;2022-07-23T07:43:30;99852.66;;;41.72;21.52
61906;BME280;47863;55.766;37.672;2022-07-23T07:45:56;99845.59;;;42.90;20.47
61906;BME280;47863;55.766;37.672;2022-07-23T07:48:21;99844.59;;;43.96;18.22
61906;BME280;47863;55.766;37.672;2022-07-23T07:50:47;99841.91;;;44.96;17.41
61906;BME280;47863;55.766;37.672;2022-07-23T07:53:13;99846.03;;;45.86;17.06
61906;BME280;47863;55.766;37.672;2022-07-23T07:55:38;99852.22;;;46.60;15.39
61906;BME280;47863;55.766;37.672;2022-07-23T07:58:04;99850.59;;;46.99;15.70
61906;BME280;47863;55.766;37.672;2022-07-23T08:00:29;99843.94;;;47.63;15.39
61906;BME280;47863;55.766;37.672;2022-07-23T08:02:55;99849.28;;;48.31;14.25
61906;BME280;47863;55.766;37.672;2022-07-23T08:05:23;99845.34;;;48.67;13.27
61906;BME280;47863;55.766;37.672;2022-07-23T08:07:49;99847.47;;;48.97;13.36
61906;BME280;47863;55.766;37.672;2022-07-23T08:10:15;99851.06;;;49.42;13.16
61906;BME280;47863;55.766;37.672;2022-07-23T08:12:47;99840.22;;;50.23;12.58
61906;BME280;47863;55.766;37.672;2022-07-23T08:15:15;99840.91;;;50.30;12.68
61906;BME280;47863;55.766;37.672;2022-07-23T08:17:42;99850.72;;;50.76;12.47
61906;BME280;47863;55.766;37.672;2022-07-23T08:20:10;99856.16;;;51.14;11.33
61906;BME280;47863;55.766;37.672;2022-07-23T08:25:14;99844.41;;;50.65;11.57
61906;BME280;47863;55.766;37.672;2022-07-23T08:27:40;99851.81;;;48.67;12.60
61906;BME280;47863;55.766;37.672;2022-07-23T08:30:06;99848.19;;;46.54;14.95
61906;BME280;47863;55.766;37.672;2022-07-23T08:32:31;99842.13;;;44.69;15.89
61906;BME280;47863;55.766;37.672;2022-07-23T08:34:57;99830.72;;;42.93;17.08
61906;BME280;47863;55.766;37.672;2022-07-23T08:37:23;99838.06;;;41.66;17.73
61906;BME280;47863;55.766;37.672;2022-07-23T08:39:48;99826.13;;;41.92;18.47
61906;BME280;47863;55.766;37.672;2022-07-23T08:42:14;99821.31;;;42.85;17.09
61906;BME280;47863;55.766;37.672;2022-07-23T08:44:42;99824.88;;;43.32;16.80
61906;BME280;47863;55.766;37.672;2022-07-23T08:47:11;99823.09;;;43.84;16.37
61906;BME280;47863;55.766;37.672;2022-07-23T08:49:37;99812.00;;;44.88;15.97
61906;BME280;47863;55.766;37.672;2022-07-23T08:52:04;99828.31;;;46.18;15.08
61906;BME280;47863;55.766;37.672;2022-07-23T08:54:31;99822.97;;;47.35;13.95
61906;BME280;47863;55.766;37.672;2022-07-23T08:56:56;99808.66;;;48.31;13.07
61906;BME280;47863;55.766;37.672;2022-07-23T08:59:22;99823.91;;;49.34;12.64
61906;BME280;47863;55.766;37.672;2022-07-23T09:01:47;99815.13;;;50.14;12.01
61906;BME280;47863;55.766;37.672;2022-07-23T09:04:13;99795.38;;;50.27;11.40
61906;BME280;47863;55.766;37.672;2022-07-23T09:06:39;99815.19;;;49.49;12.34
61906;BME280;47863;55.766;37.672;2022-07-23T09:09:18;99815.03;;;48.91;12.92
61906;BME280;47863;55.766;37.672;2022-07-23T09:11:48;99814.03;;;48.70;13.18
61906;BME280;47863;55.766;37.672;2022-07-23T09:14:40;99810.97;;;49.30;13.23
61906;BME280;47863;55.766;37.672;2022-07-23T09:17:11;99808.22;;;48.39;12.96
61906;BME280;47863;55.766;37.672;2022-07-23T09:19:37;99812.59;;;46.46;14.15
61906;BME280;47863;55.766;37.672;2022-07-23T09:22:25;99804.56;;;44.69;15.16
61906;BME280;47863;55.766;37.672;2022-07-23T09:25:20;99798.25;;;42.49;16.10
61906;BME280;47863;55.766;37.672;2022-07-23T09:30:14;99799.75;;;39.11;20.62
61906;BME280;47863;55.766;37.672;2022-07-23T09:32:40;99811.56;;;38.09;21.69
61906;BME280;47863;55.766;37.672;2022-07-23T09:35:06;99810.38;;;37.14;23.13
61906;BME280;47863;55.766;37.672;2022-07-23T09:37:32;99807.13;;;36.35;23.58
61906;BME280;47863;55.766;37.672;2022-07-23T09:40:07;99800.34;;;35.88;22.57
61906;BME280;47863;55.766;37.672;2022-07-23T09:42:34;99778.66;;;36.20;23.33
61906;BME280;47863;55.766;37.672;2022-07-23T09:45:00;99804.06;;;38.01;22.04
61906;BME280;47863;55.766;37.672;2022-07-23T09:47:28;99795.31;;;40.07;21.75
61906;BME280;47863;55.766;37.672;2022-07-23T09:52:46;99794.69;;;44.04;17.53
61906;BME280;47863;55.766;37.672;2022-07-23T09:55:17;99792.44;;;45.27;14.98
61906;BME280;47863;55.766;37.672;2022-07-23T09:57:44;99791.94;;;46.27;15.12
61906;BME280;47863;55.766;37.672;2022-07-23T10:00:16;99793.88;;;47.13;14.21
61906;BME280;47863;55.766;37.672;2022-07-23T10:02:42;99792.69;;;47.92;13.67
61906;BME280;47863;55.766;37.672;2022-07-23T10:05:11;99786.22;;;47.95;13.65
61906;BME280;47863;55.766;37.672;2022-07-23T10:07:39;99793.06;;;47.13;13.28
61906;BME280;47863;55.766;37.672;2022-07-23T10:10:06;99788.91;;;45.56;14.32
61906;BME280;47863;55.766;37.672;2022-07-23T10:12:32;99781.44;;;45.11;15.56
61906;BME280;47863;55.766;37.672;2022-07-23T10:15:12;99789.66;;;44.72;15.88
61906;BME280;47863;55.766;37.672;2022-07-23T10:17:38;99778.28;;;44.61;15.93
61906;BME280;47863;55.766;37.672;2022-07-23T10:20:04;99779.91;;;44.14;15.89
61906;BME280;47863;55.766;37.672;2022-07-23T10:22:34;99780.16;;;43.30;16.12
61906;BME280;47863;55.766;37.672;2022-07-23T10:27:57;99771.03;;;40.94;19.25
61906;BME280;47863;55.766;37.672;2022-07-23T10:30:43;99768.78;;;40.68;18.93
61906;BME280;47863;55.766;37.672;2022-07-23T10:33:41;99768.28;;;41.52;18.69
61906;BME280;47863;55.766;37.672;2022-07-23T10:36:32;99761.31;;;43.08;17.74
61906;BME280;47863;55.766;37.672;2022-07-23T10:39:24;99753.97;;;44.46;17.23
61906;BME280;47863;55.766;37.672;2022-07-23T10:41:50;99761.63;;;45.04;14.73
61906;BME280;47863;55.766;37.672;2022-07-23T10:44:19;99760.69;;;45.70;14.30
61906;BME280;47863;55.766;37.672;2022-07-23T10:46:57;99757.94;;;46.67;15.22
61906;BME280;47863;55.766;37.672;2022-07-23T10:49:40;99756.63;;;47.00;14.24
61906;BME280;47863;55.766;37.672;2022-07-23T10:52:26;99750.66;;;48.28;14.29
61906;BME280;47863;55.766;37.672;2022-07-23T10:54:57;99736.19;;;48.60;12.62
61906;BME280;47863;55.766;37.672;2022-07-23T10:57:49;99735.81;;;49.27;12.61
61906;BME280;47863;55.766;37.672;2022-07-23T11:00:25;99740.16;;;49.66;12.43
61906;BME280;47863;55.766;37.672;2022-07-23T11:02:53;99744.28;;;49.31;12.60
61906;BME280;47863;55.766;37.672;2022-07-23T11:05:22;99732.88;;;48.62;12.28
61906;BME280;47863;55.766;37.672;2022-07-23T11:10:37;99738.47;;;45.79;14.49
61906;BME280;47863;55.766;37.672;2022-07-23T11:24:06;99725.22;;;36.78;22.38
61906;BME280;47863;55.766;37.672;2022-07-23T11:32:29;99717.84;;;39.01;20.75
61906;BME280;47863;55.766;37.672;2022-07-23T11:34:53;99725.56;;;38.43;21.42
61906;BME280;47863;55.766;37.672;2022-07-23T11:37:38;99715.09;;;38.27;20.77
61906;BME280;47863;55.766;37.672;2022-07-23T11:40:13;99716.53;;;39.11;20.97
61906;BME280;47863;55.766;37.672;2022-07-23T11:42:51;99716.34;;;39.60;19.88
61906;BME280;47863;55.766;37.672;2022-07-23T11:45:17;99707.81;;;38.88;20.61
61906;BME280;47863;55.766;37.672;2022-07-23T11:47:42;99701.19;;;37.94;21.88
61906;BME280;47863;55.766;37.672;2022-07-23T11:50:08;99713.66;;;37.09;22.89
61906;BME280;47863;55.766;37.672;2022-07-23T11:52:34;99702.53;;;36.20;24.73
61906;BME280;47863;55.766;37.672;2022-07-23T11:55:05;99706.47;;;35.63;24.95
61906;BME280;47863;55.766;37.672;2022-07-23T11:57:37;99704.53;;;34.93;25.10
61906;BME280;47863;55.766;37.672;2022-07-23T12:00:15;99700.13;;;34.44;24.86
61906;BME280;47863;55.766;37.672;2022-07-23T12:02:43;99703.63;;;34.58;27.78
61906;BME280;47863;55.766;37.672;2022-07-23T12:05:18;99705.78;;;35.83;25.66
61906;BME280;47863;55.766;37.672;2022-07-23T12:07:45;99706.09;;;37.09;24.33
61906;BME280;47863;55.766;37.672;2022-07-23T12:10:24;99701.13;;;38.52;22.78
61906;BME280;47863;55.766;37.672;2022-07-23T12:12:55;99697.53;;;39.61;21.31
61906;BME280;47863;55.766;37.672;2022-07-23T12:15:26;99695.63;;;40.41;19.75
61906;BME280;47863;55.766;37.672;2022-07-23T12:17:53;99698.41;;;40.25;20.35
61906;BME280;47863;55.766;37.672;2022-07-23T12:20:22;99692.56;;;39.54;20.70
61906;BME280;47863;55.766;37.672;2022-07-23T12:22:51;99685.72;;;38.46;21.21
61906;BME280;47863;55.766;37.672;2022-07-23T12:25:20;99680.06;;;37.39;23.03
61906;BME280;47863;55.766;37.672;2022-07-23T12:28:02;99678.59;;;36.48;22.20
61906;BME280;47863;55.766;37.672;2022-07-23T12:30:29;99677.56;;;35.85;21.79
61906;BME280;47863;55.766;37.672;2022-07-23T12:32:57;99668.66;;;34.74;25.41
61906;BME280;47863;55.766;37.672;2022-07-23T12:35:29;99673.25;;;34.22;26.32
61906;BME280;47863;55.766;37.672;2022-07-23T12:38:03;99670.53;;;34.39;27.24
61906;BME280;47863;55.766;37.672;2022-07-23T12:40:49;99669.47;;;34.75;26.57
61906;BME280;47863;55.766;37.672;2022-07-23T12:48:32;99667.03;;;35.08;26.33
61906;BME280;47863;55.766;37.672;2022-07-23T12:51:03;99660.66;;;34.90;26.07
61906;BME280;47863;55.766;37.672;2022-07-23T12:53:40;99638.69;;;34.71;26.24
61906;BME280;47863;55.766;37.672;2022-07-23T12:56:10;99663.59;;;34.68;26.69
61906;BME280;47863;55.766;37.672;2022-07-23T13:01:05;99657.56;;;34.26;27.20
61906;BME280;47863;55.766;37.672;2022-07-23T13:03:34;99649.81;;;34.05;28.07
61906;BME280;47863;55.766;37.672;2022-07-23T13:06:03;99648.38;;;33.76;27.66
61906;BME280;47863;55.766;37.672;2022-07-23T13:08:31;99655.13;;;33.62;28.73
61906;BME280;47863;55.766;37.672;2022-07-23T13:10:57;99656.00;;;33.39;28.85
61906;BME280;47863;55.766;37.672;2022-07-23T13:13:25;99652.19;;;33.13;27.85
61906;BME280;47863;55.766;37.672;2022-07-23T13:15:51;99650.75;;;32.79;28.40
61906;BME280;47863;55.766;37.672;2022-07-23T13:18:17;99655.94;;;32.44;28.66
61906;BME280;47863;55.766;37.672;2022-07-23T13:20:44;99654.84;;;32.17;29.67
61906;BME280;47863;55.766;37.672;2022-07-23T13:23:10;99651.56;;;32.01;31.64
61906;BME280;47863;55.766;37.672;2022-07-23T13:25:36;99654.84;;;32.04;31.25
61906;BME280;47863;55.766;37.672;2022-07-23T13:28:02;99644.59;;;32.04;31.26
61906;BME280;47863;55.766;37.672;2022-07-23T13:30:27;99647.94;;;32.01;29.50